sensor_id;sensor_type;location;lat;lon;timestamp;pressure;altitude;pressure_sealevel;temperature;humidity
45253;BME280;63171;50.520;30.486;2023-12-14T00:00:29;99414.81;;;0.73;100.00
45253;BME280;63171;50.520;30.486;2023-12-14T00:01:18;99416.38;;;0.79;100.00
45253;BME280;63171;50.520;30.486;2023-12-14T00:02:09;99411.44;;;0.71;100.00
45253;BME280;63171;50.520;30.486;2023-12-14T00:02:59;99420.97;;;0.69;100.00
45253;BME280;63171;50.520;30.486;2023-12-14T00:03:49;99419.28;;;0.67;100.00
45253;BME280;63171;50.520;30.486;2023-12-14T00:04:40;99414.06;;;0.70;100.00
45253;BME280;63171;50.520;30.486;2023-12-14T00:05:29;99408.47;;;0.55;100.00
45253;BME280;63171;50.520;30.486;2023-12-14T00:06:19;99411.16;;;0.51;100.00
45253;BME280;63171;50.520;30.486;2023-12-14T00:07:10;99402.69;;;0.47;100.00
45253;BME280;63171;50.520;30.486;2023-12-14T00:08:03;99410.38;;;0.49;100.00
45253;BME280;63171;50.520;30.486;2023-12-14T00:08:54;99395.59;;;0.55;100.00
45253;BME280;63171;50.520;30.486;2023-12-14T00:09:44;99410.22;;;0.55;100.00
45253;BME280;63171;50.520;30.486;2023-12-14T00:10:34;99425.56;;;0.58;100.00
45253;BME280;63171;50.520;30.486;2023-12-14T00:11:24;99401.59;;;0.56;100.00
45253;BME280;63171;50.520;30.486;2023-12-14T00:12:14;99414.28;;;0.62;100.00
45253;BME280;63171;50.520;30.486;2023-12-14T00:13:04;99408.25;;;0.63;100.00
45253;BME280;63171;50.520;30.486;2023-12-14T00:13:58;99408.28;;;0.62;100.00
45253;BME280;63171;50.520;30.486;2023-12-14T00:14:47;99403.13;;;0.62;100.00
45253;BME280;63171;50.520;30.486;2023-12-14T00:15:38;99397.03;;;0.64;100.00
45253;BME280;63171;50.520;30.486;2023-12-14T00:16:27;99406.25;;;0.73;100.00
45253;BME280;63171;50.520;30.486;2023-12-14T00:17:17;99387.69;;;0.62;100.00
45253;BME280;63171;50.520;30.486;2023-12-14T00:18:08;99420.25;;;0.64;100.00
45253;BME280;63171;50.520;30.486;2023-12-14T00:18:57;99405.84;;;0.57;100.00
45253;BME280;63171;50.520;30.486;2023-12-14T00:19:47;99407.34;;;0.64;100.00
45253;BME280;63171;50.520;30.486;2023-12-14T00:20:37;99446.16;;;0.59;100.00
45253;BME280;63171;50.520;30.486;2023-12-14T00:21:27;99407.66;;;0.53;100.00
45253;BME280;63171;50.520;30.486;2023-12-14T00:22:17;99401.66;;;0.54;100.00
45253;BME280;63171;50.520;30.486;2023-12-14T00:23:08;99417.13;;;0.53;100.00
45253;BME280;63171;50.520;30.486;2023-12-14T00:23:57;99393.88;;;0.56;100.00
45253;BME280;63171;50.520;30.486;2023-12-14T00:24:47;99394.56;;;0.61;100.00
45253;BME280;63171;50.520;30.486;2023-12-14T00:25:38;99406.56;;;0.62;100.00
45253;BME280;63171;50.520;30.486;2023-12-14T00:26:28;99393.97;;;0.51;100.00
45253;BME280;63171;50.520;30.486;2023-12-14T00:27:18;99403.38;;;0.54;100.00
45253;BME280;63171;50.520;30.486;2023-12-14T00:28:08;99404.22;;;0.54;100.00
45253;BME280;63171;50.520;30.486;2023-12-14T00:28:59;99404.22;;;0.54;100.00
45253;BME280;63171;50.520;30.486;2023-12-14T00:29:49;99397.28;;;0.56;100.00
45253;BME280;63171;50.520;30.486;2023-12-14T00:30:39;99418.69;;;0.58;100.00
45253;BME280;63171;50.520;30.486;2023-12-14T00:31:29;99406.25;;;0.43;100.00
45253;BME280;63171;50.520;30.486;2023-12-14T00:32:20;99396.78;;;0.44;100.00
45253;BME280;63171;50.520;30.486;2023-12-14T00:33:09;99396.50;;;0.54;100.00
45253;BME280;63171;50.520;30.486;2023-12-14T00:33:59;99394.81;;;0.52;100.00
45253;BME280;63171;50.520;30.486;2023-12-14T00:34:50;99390.34;;;0.58;100.00
45253;BME280;63171;50.520;30.486;2023-12-14T00:35:59;99392.69;;;0.66;100.00
45253;BME280;63171;50.520;30.486;2023-12-14T00:36:48;99395.81;;;0.48;100.00
45253;BME280;63171;50.520;30.486;2023-12-14T00:37:39;99379.31;;;0.55;100.00
45253;BME280;63171;50.520;30.486;2023-12-14T00:38:29;99384.56;;;0.50;100.00
45253;BME280;63171;50.520;30.486;2023-12-14T00:39:19;99389.03;;;0.45;100.00
45253;BME280;63171;50.520;30.486;2023-12-14T00:40:10;99383.91;;;0.44;100.00
45253;BME280;63171;50.520;30.486;2023-12-14T00:40:59;99379.41;;;0.50;100.00
45253;BME280;63171;50.520;30.486;2023-12-14T00:41:49;99379.66;;;0.43;100.00
45253;BME280;63171;50.520;30.486;2023-12-14T00:42:40;99386.66;;;0.38;100.00
45253;BME280;63171;50.520;30.486;2023-12-14T00:43:29;99372.09;;;0.37;100.00
45253;BME280;63171;50.520;30.486;2023-12-14T00:44:21;99375.16;;;0.49;100.00
45253;BME280;63171;50.520;30.486;2023-12-14T00:45:11;99376.84;;;0.50;100.00
45253;BME280;63171;50.520;30.486;2023-12-14T00:46:01;99371.59;;;0.53;100.00
45253;BME280;63171;50.520;30.486;2023-12-14T00:46:52;99372.41;;;0.55;100.00
45253;BME280;63171;50.520;30.486;2023-12-14T00:47:42;99368.94;;;0.56;100.00
45253;BME280;63171;50.520;30.486;2023-12-14T00:48:32;99376.53;;;0.61;100.00
45253;BME280;63171;50.520;30.486;2023-12-14T00:49:22;99362.28;;;0.49;100.00
45253;BME280;63171;50.520;30.486;2023-12-14T00:50:12;99355.22;;;0.56;100.00
45253;BME280;63171;50.520;30.486;2023-12-14T00:51:02;99358.53;;;0.59;100.00
45253;BME280;63171;50.520;30.486;2023-12-14T00:51:52;99356.09;;;0.55;100.00
45253;BME280;63171;50.520;30.486;2023-12-14T00:52:42;99367.31;;;0.52;100.00
45253;BME280;63171;50.520;30.486;2023-12-14T00:53:32;99359.09;;;0.40;100.00
45253;BME280;63171;50.520;30.486;2023-12-14T00:54:23;99351.53;;;0.35;100.00
45253;BME280;63171;50.520;30.486;2023-12-14T00:55:12;99359.09;;;0.41;100.00
45253;BME280;63171;50.520;30.486;2023-12-14T00:56:02;99352.94;;;0.45;100.00
45253;BME280;63171;50.520;30.486;2023-12-14T00:56:53;99362.66;;;0.36;100.00
45253;BME280;63171;50.520;30.486;2023-12-14T00:57:43;99360.25;;;0.31;100.00
45253;BME280;63171;50.520;30.486;2023-12-14T00:58:33;99348.19;;;0.32;100.00
45253;BME280;63171;50.520;30.486;2023-12-14T00:59:24;99343.19;;;0.27;100.00
45253;BME280;63171;50.520;30.486;2023-12-14T01:00:14;99348.94;;;0.35;100.00
45253;BME280;63171;50.520;30.486;2023-12-14T01:03:58;99341.81;;;0.45;100.00
45253;BME280;63171;50.520;30.486;2023-12-14T01:04:49;99334.91;;;0.45;100.00
45253;BME280;63171;50.520;30.486;2023-12-14T01:05:39;99338.13;;;0.52;100.00
45253;BME280;63171;50.520;30.486;2023-12-14T01:06:29;99337.31;;;0.51;100.00
45253;BME280;63171;50.520;30.486;2023-12-14T01:07:19;99356.19;;;0.52;100.00
45253;BME280;63171;50.520;30.486;2023-12-14T01:08:09;99380.66;;;0.37;100.00
45253;BME280;63171;50.520;30.486;2023-12-14T01:08:58;99348.19;;;0.32;100.00
45253;BME280;63171;50.520;30.486;2023-12-14T01:09:49;99351.78;;;0.26;100.00
45253;BME280;63171;50.520;30.486;2023-12-14T01:10:39;99348.72;;;0.13;100.00
45253;BME280;63171;50.520;30.486;2023-12-14T01:11:29;99356.31;;;0.18;100.00
45253;BME280;63171;50.520;30.486;2023-12-14T01:12:19;99333.16;;;0.18;100.00
45253;BME280;63171;50.520;30.486;2023-12-14T01:13:09;99360.41;;;0.25;100.00
45253;BME280;63171;50.520;30.486;2023-12-14T01:13:58;99331.28;;;0.23;100.00
45253;BME280;63171;50.520;30.486;2023-12-14T01:14:50;99332.06;;;0.25;100.00
45253;BME280;63171;50.520;30.486;2023-12-14T01:15:40;99350.94;;;0.27;100.00
45253;BME280;63171;50.520;30.486;2023-12-14T01:16:30;99344.19;;;0.21;100.00
45253;BME280;63171;50.520;30.486;2023-12-14T01:17:20;99354.53;;;0.20;100.00
45253;BME280;63171;50.520;30.486;2023-12-14T01:18:10;99338.41;;;0.15;100.00
45253;BME280;63171;50.520;30.486;2023-12-14T01:19:00;99335.00;;;0.13;100.00
45253;BME280;63171;50.520;30.486;2023-12-14T01:19:51;99343.53;;;0.15;100.00
45253;BME280;63171;50.520;30.486;2023-12-14T01:20:40;99354.00;;;0.09;100.00
45253;BME280;63171;50.520;30.486;2023-12-14T01:21:31;99335.94;;;0.10;100.00
45253;BME280;63171;50.520;30.486;2023-12-14T01:22:21;99337.47;;;0.17;100.00
45253;BME280;63171;50.520;30.486;2023-12-14T01:23:11;99348.56;;;0.19;100.00
45253;BME280;63171;50.520;30.486;2023-12-14T01:24:08;99336.56;;;0.18;100.00
45253;BME280;63171;50.520;30.486;2023-12-14T01:24:58;99333.91;;;0.21;100.00
45253;BME280;63171;50.520;30.486;2023-12-14T01:25:49;99334.69;;;0.23;100.00
45253;BME280;63171;50.520;30.486;2023-12-14T01:26:39;99331.28;;;0.23;100.00
45253;BME280;63171;50.520;30.486;2023-12-14T01:27:29;99324.63;;;0.16;100.00
45253;BME280;63171;50.520;30.486;2023-12-14T01:28:19;99334.78;;;0.20;100.00
45253;BME280;63171;50.520;30.486;2023-12-14T01:29:09;99329.50;;;0.25;100.00
45253;BME280;63171;50.520;30.486;2023-12-14T01:30:02;99325.38;;;0.19;100.00
45253;BME280;63171;50.520;30.486;2023-12-14T01:30:52;99320.09;;;0.24;100.00
45253;BME280;63171;50.520;30.486;2023-12-14T01:31:43;99317.41;;;0.28;100.00
45253;BME280;63171;50.520;30.486;2023-12-14T01:32:33;99344.16;;;0.23;100.00
45253;BME280;63171;50.520;30.486;2023-12-14T01:33:23;99334.09;;;0.15;100.00
45253;BME280;63171;50.520;30.486;2023-12-14T01:34:13;99322.84;;;0.18;100.00
45253;BME280;63171;50.520;30.486;2023-12-14T01:35:05;99313.13;;;0.27;100.00
45253;BME280;63171;50.520;30.486;2023-12-14T01:35:54;99340.38;;;0.35;100.00
45253;BME280;63171;50.520;30.486;2023-12-14T01:36:45;99339.72;;;0.28;100.00
45253;BME280;63171;50.520;30.486;2023-12-14T01:37:35;99331.22;;;0.24;100.00
45253;BME280;63171;50.520;30.486;2023-12-14T01:38:24;99321.97;;;0.19;100.00
45253;BME280;63171;50.520;30.486;2023-12-14T01:39:15;99308.25;;;0.18;100.00
45253;BME280;63171;50.520;30.486;2023-12-14T01:40:05;99317.47;;;0.25;100.00
45253;BME280;63171;50.520;30.486;2023-12-14T01:40:55;99304.53;;;0.28;100.00
45253;BME280;63171;50.520;30.486;2023-12-14T01:41:46;99297.53;;;0.32;100.00
45253;BME280;63171;50.520;30.486;2023-12-14T01:42:35;99295.81;;;0.33;100.00
45253;BME280;63171;50.520;30.486;2023-12-14T01:43:25;99300.75;;;0.39;100.00
45253;BME280;63171;50.520;30.486;2023-12-14T01:44:16;99301.00;;;0.31;100.00
45253;BME280;63171;50.520;30.486;2023-12-14T01:45:07;99291.59;;;0.30;100.00
45253;BME280;63171;50.520;30.486;2023-12-14T01:45:57;99285.41;;;0.36;100.00
45253;BME280;63171;50.520;30.486;2023-12-14T01:46:47;99288.22;;;0.28;100.00
45253;BME280;63171;50.520;30.486;2023-12-14T01:47:37;99291.69;;;0.27;100.00
45253;BME280;63171;50.520;30.486;2023-12-14T01:48:28;99288.88;;;0.35;100.00
45253;BME280;63171;50.520;30.486;2023-12-14T01:49:18;99283.56;;;0.41;100.00
45253;BME280;63171;50.520;30.486;2023-12-14T01:50:07;99291.53;;;0.32;100.00
45253;BME280;63171;50.520;30.486;2023-12-14T01:50:58;99285.88;;;0.20;100.00
45253;BME280;63171;50.520;30.486;2023-12-14T01:51:47;99284.09;;;0.22;100.00
45253;BME280;63171;50.520;30.486;2023-12-14T01:52:38;99274.41;;;0.31;100.00
45253;BME280;63171;50.520;30.486;2023-12-14T01:53:28;99284.81;;;0.26;100.00
45253;BME280;63171;50.520;30.486;2023-12-14T01:54:19;99281.34;;;0.28;100.00
45253;BME280;63171;50.520;30.486;2023-12-14T01:55:08;99276.00;;;0.35;100.00
45253;BME280;63171;50.520;30.486;2023-12-14T01:55:59;99277.03;;;0.29;100.00
45253;BME280;63171;50.520;30.486;2023-12-14T01:56:49;99274.47;;;0.29;100.00
45253;BME280;63171;50.520;30.486;2023-12-14T01:57:39;99276.75;;;0.38;100.00
45253;BME280;63171;50.520;30.486;2023-12-14T01:58:30;99278.78;;;0.28;100.00
45253;BME280;63171;50.520;30.486;2023-12-14T01:59:19;99268.72;;;0.19;100.00
45253;BME280;63171;50.520;30.486;2023-12-14T02:00:13;99269.16;;;0.34;100.00
45253;BME280;63171;50.520;30.486;2023-12-14T02:01:10;99267.84;;;0.48;100.00
45253;BME280;63171;50.520;30.486;2023-12-14T02:02:04;99278.34;;;0.42;100.00
45253;BME280;63171;50.520;30.486;2023-12-14T02:02:54;99270.66;;;0.41;100.00
45253;BME280;63171;50.520;30.486;2023-12-14T02:03:45;99259.38;;;0.45;100.00
45253;BME280;63171;50.520;30.486;2023-12-14T02:04:35;99261.44;;;0.34;100.00
45253;BME280;63171;50.520;30.486;2023-12-14T02:05:27;99251.59;;;0.18;100.00
45253;BME280;63171;50.520;30.486;2023-12-14T02:06:17;99256.78;;;0.17;100.00
45253;BME280;63171;50.520;30.486;2023-12-14T02:07:07;99250.13;;;0.10;100.00
45253;BME280;63171;50.520;30.486;2023-12-14T02:07:57;99252.44;;;0.19;100.00
45253;BME280;63171;50.520;30.486;2023-12-14T02:08:47;99246.88;;;0.33;100.00
45253;BME280;63171;50.520;30.486;2023-12-14T02:09:37;99241.03;;;0.27;100.00
45253;BME280;63171;50.520;30.486;2023-12-14T02:10:27;99247.13;;;0.23;100.00
45253;BME280;63171;50.520;30.486;2023-12-14T02:11:17;99260.06;;;0.22;100.00
45253;BME280;63171;50.520;30.486;2023-12-14T02:12:07;99258.00;;;0.05;100.00
45253;BME280;63171;50.520;30.486;2023-12-14T02:12:57;99263.88;;;0.09;100.00
45253;BME280;63171;50.520;30.486;2023-12-14T02:13:47;99246.06;;;0.03;100.00
45253;BME280;63171;50.520;30.486;2023-12-14T02:14:37;99246.13;;;-0.01;100.00
45253;BME280;63171;50.520;30.486;2023-12-14T02:15:29;99243.56;;;-0.01;100.00
45253;BME280;63171;50.520;30.486;2023-12-14T02:16:19;99230.53;;;0.06;100.00
45253;BME280;63171;50.520;30.486;2023-12-14T02:17:09;99249.19;;;0.12;100.00
45253;BME280;63171;50.520;30.486;2023-12-14T02:17:59;99243.34;;;0.07;100.00
45253;BME280;63171;50.520;30.486;2023-12-14T02:18:49;99250.91;;;0.12;100.00
45253;BME280;63171;50.520;30.486;2023-12-14T02:19:39;99239.63;;;0.17;100.00
45253;BME280;63171;50.520;30.486;2023-12-14T02:20:29;99229.31;;;0.17;100.00
45253;BME280;63171;50.520;30.486;2023-12-14T02:21:19;99246.44;;;0.18;100.00
45253;BME280;63171;50.520;30.486;2023-12-14T02:22:09;99248.41;;;0.10;100.00
45253;BME280;63171;50.520;30.486;2023-12-14T02:23:01;99221.91;;;0.07;100.00
45253;BME280;63171;50.520;30.486;2023-12-14T02:23:51;99224.25;;;0.14;100.00
45253;BME280;63171;50.520;30.486;2023-12-14T02:24:41;99220.53;;;0.23;100.00
45253;BME280;63171;50.520;30.486;2023-12-14T02:25:31;99235.00;;;0.28;100.00
45253;BME280;63171;50.520;30.486;2023-12-14T02:26:20;99231.53;;;0.29;100.00
45253;BME280;63171;50.520;30.486;2023-12-14T02:27:10;99216.13;;;0.28;100.00
45253;BME280;63171;50.520;30.486;2023-12-14T02:28:01;99214.19;;;0.35;100.00
45253;BME280;63171;50.520;30.486;2023-12-14T02:28:51;99229.06;;;0.25;100.00
45253;BME280;63171;50.520;30.486;2023-12-14T02:29:40;99215.41;;;0.23;100.00
45253;BME280;63171;50.520;30.486;2023-12-14T02:30:31;99216.13;;;0.26;100.00
45253;BME280;63171;50.520;30.486;2023-12-14T02:31:21;99213.63;;;0.25;100.00
45253;BME280;63171;50.520;30.486;2023-12-14T02:32:12;99212.88;;;0.21;100.00
45253;BME280;63171;50.520;30.486;2023-12-14T02:33:02;99239.31;;;0.26;100.00
45253;BME280;63171;50.520;30.486;2023-12-14T02:33:52;99231.09;;;0.15;100.00
45253;BME280;63171;50.520;30.486;2023-12-14T02:34:42;99210.56;;;0.14;100.00
45253;BME280;63171;50.520;30.486;2023-12-14T02:35:32;99202.69;;;0.18;100.00
45253;BME280;63171;50.520;30.486;2023-12-14T02:36:22;99217.88;;;0.26;100.00
45253;BME280;63171;50.520;30.486;2023-12-14T02:37:12;99222.47;;;0.16;100.00
45253;BME280;63171;50.520;30.486;2023-12-14T02:38:04;99219.13;;;0.13;100.00
45253;BME280;63171;50.520;30.486;2023-12-14T02:38:53;99200.63;;;0.02;100.00
45253;BME280;63171;50.520;30.486;2023-12-14T02:39:44;99190.19;;;0.06;100.00
45253;BME280;63171;50.520;30.486;2023-12-14T02:40:36;99202.00;;;0.12;100.00
45253;BME280;63171;50.520;30.486;2023-12-14T02:41:26;99207.19;;;0.10;100.00
45253;BME280;63171;50.520;30.486;2023-12-14T02:42:16;99192.75;;;0.06;100.00
45253;BME280;63171;50.520;30.486;2023-12-14T02:43:05;99195.19;;;0.11;100.00
45253;BME280;63171;50.520;30.486;2023-12-14T02:43:55;99190.06;;;0.09;100.00
45253;BME280;63171;50.520;30.486;2023-12-14T02:44:46;99228.22;;;-0.04;100.00
45253;BME280;63171;50.520;30.486;2023-12-14T02:45:36;99192.47;;;-0.13;100.00
45253;BME280;63171;50.520;30.486;2023-12-14T02:46:25;99195.53;;;-0.02;100.00
45253;BME280;63171;50.520;30.486;2023-12-14T02:47:16;99204.94;;;0.01;100.00
45253;BME280;63171;50.520;30.486;2023-12-14T02:48:05;99184.28;;;0.03;100.00
45253;BME280;63171;50.520;30.486;2023-12-14T02:48:56;99204.63;;;0.10;100.00
45253;BME280;63171;50.520;30.486;2023-12-14T02:49:47;99202.84;;;0.12;100.00
45253;BME280;63171;50.520;30.486;2023-12-14T02:50:37;99189.00;;;0.16;100.00
45253;BME280;63171;50.520;30.486;2023-12-14T02:51:26;99184.59;;;0.20;100.00
45253;BME280;63171;50.520;30.486;2023-12-14T02:52:17;99174.25;;;0.21;100.00
45253;BME280;63171;50.520;30.486;2023-12-14T02:53:08;99196.41;;;0.27;100.00
45253;BME280;63171;50.520;30.486;2023-12-14T02:53:59;99181.09;;;0.22;100.00
45253;BME280;63171;50.520;30.486;2023-12-14T02:54:49;99206.72;;;0.27;100.00
45253;BME280;63171;50.520;30.486;2023-12-14T02:55:39;99175.94;;;0.22;100.00
45253;BME280;63171;50.520;30.486;2023-12-14T02:56:29;99205.31;;;0.17;100.00
45253;BME280;63171;50.520;30.486;2023-12-14T02:57:19;99179.41;;;0.21;100.00
45253;BME280;63171;50.520;30.486;2023-12-14T02:58:09;99170.03;;;0.19;100.00
45253;BME280;63171;50.520;30.486;2023-12-14T02:58:59;99180.28;;;0.20;100.00
45253;BME280;63171;50.520;30.486;2023-12-14T02:59:49;99174.19;;;0.23;100.00
45253;BME280;63171;50.520;30.486;2023-12-14T03:00:39;99175.47;;;0.10;100.00
45253;BME280;63171;50.520;30.486;2023-12-14T03:01:29;99184.94;;;0.09;100.00
45253;BME280;63171;50.520;30.486;2023-12-14T03:02:19;99199.38;;;0.13;100.00
45253;BME280;63171;50.520;30.486;2023-12-14T03:03:09;99197.91;;;0.06;100.00
45253;BME280;63171;50.520;30.486;2023-12-14T03:03:58;99181.78;;;-0.01;100.00
45253;BME280;63171;50.520;30.486;2023-12-14T03:04:49;99169.78;;;0.00;100.00
45253;BME280;63171;50.520;30.486;2023-12-14T03:05:39;99166.91;;;0.09;100.00
45253;BME280;63171;50.520;30.486;2023-12-14T03:06:28;99174.34;;;0.18;100.00
45253;BME280;63171;50.520;30.486;2023-12-14T03:07:19;99182.91;;;0.19;100.00
45253;BME280;63171;50.520;30.486;2023-12-14T03:08:10;99182.19;;;0.15;100.00
45253;BME280;63171;50.520;30.486;2023-12-14T03:09:00;99167.56;;;0.16;100.00
45253;BME280;63171;50.520;30.486;2023-12-14T03:09:50;99173.41;;;0.21;100.00
45253;BME280;63171;50.520;30.486;2023-12-14T03:10:40;99184.81;;;0.14;100.00
45253;BME280;63171;50.520;30.486;2023-12-14T03:11:31;99163.16;;;0.19;100.00
45253;BME280;63171;50.520;30.486;2023-12-14T03:12:21;99177.66;;;0.22;100.00
45253;BME280;63171;50.520;30.486;2023-12-14T03:13:11;99170.19;;;0.14;100.00
45253;BME280;63171;50.520;30.486;2023-12-14T03:14:01;99168.47;;;0.15;100.00
45253;BME280;63171;50.520;30.486;2023-12-14T03:14:50;99161.38;;;0.21;100.00
45253;BME280;63171;50.520;30.486;2023-12-14T03:15:42;99183.91;;;0.15;100.00
45253;BME280;63171;50.520;30.486;2023-12-14T03:16:32;99166.13;;;0.07;100.00
45253;BME280;63171;50.520;30.486;2023-12-14T03:17:24;99165.16;;;0.10;100.00
45253;BME280;63171;50.520;30.486;2023-12-14T03:18:15;99168.78;;;0.04;100.00
45253;BME280;63171;50.520;30.486;2023-12-14T03:19:06;99177.09;;;0.12;100.00
45253;BME280;63171;50.520;30.486;2023-12-14T03:19:55;99168.78;;;0.04;100.00
45253;BME280;63171;50.520;30.486;2023-12-14T03:20:46;99163.53;;;0.07;100.00
45253;BME280;63171;50.520;30.486;2023-12-14T03:21:36;99205.63;;;0.06;100.00
45253;BME280;63171;50.520;30.486;2023-12-14T03:22:27;99170.47;;;0.05;100.00
45253;BME280;63171;50.520;30.486;2023-12-14T03:23:18;99186.03;;;0.02;100.00
45253;BME280;63171;50.520;30.486;2023-12-14T03:24:09;99161.97;;;0.03;100.00
45253;BME280;63171;50.520;30.486;2023-12-14T03:24:59;99180.78;;;0.05;100.00
45253;BME280;63171;50.520;30.486;2023-12-14T03:25:48;99156.72;;;0.06;100.00
45253;BME280;63171;50.520;30.486;2023-12-14T03:26:39;99155.72;;;0.10;100.00
45253;BME280;63171;50.520;30.486;2023-12-14T03:27:29;99152.41;;;0.07;100.00
45253;BME280;63171;50.520;30.486;2023-12-14T03:28:19;99149.78;;;0.08;100.00
45253;BME280;63171;50.520;30.486;2023-12-14T03:29:09;99170.38;;;0.08;100.00
45253;BME280;63171;50.520;30.486;2023-12-14T03:29:59;99144.47;;;0.14;100.00
45253;BME280;63171;50.520;30.486;2023-12-14T03:30:49;99147.25;;;0.07;100.00
45253;BME280;63171;50.520;30.486;2023-12-14T03:31:40;99135.16;;;0.09;100.00
45253;BME280;63171;50.520;30.486;2023-12-14T03:32:29;99147.75;;;0.18;100.00
45253;BME280;63171;50.520;30.486;2023-12-14T03:33:19;99136.00;;;0.09;100.00
45253;BME280;63171;50.520;30.486;2023-12-14T03:34:11;99128.06;;;0.17;100.00
45253;BME280;63171;50.520;30.486;2023-12-14T03:35:01;99145.09;;;0.21;100.00
45253;BME280;63171;50.520;30.486;2023-12-14T03:35:51;99131.31;;;0.22;100.00
45253;BME280;63171;50.520;30.486;2023-12-14T03:36:41;99133.25;;;0.15;100.00
45253;BME280;63171;50.520;30.486;2023-12-14T03:37:31;99135.22;;;0.07;100.00
45253;BME280;63171;50.520;30.486;2023-12-14T03:38:22;99127.50;;;0.07;100.00
45253;BME280;63171;50.520;30.486;2023-12-14T03:39:13;99134.00;;;0.19;100.00
45253;BME280;63171;50.520;30.486;2023-12-14T03:40:03;99121.72;;;0.27;100.00
45253;BME280;63171;50.520;30.486;2023-12-14T03:40:53;99129.28;;;0.32;100.00
45253;BME280;63171;50.520;30.486;2023-12-14T03:41:43;99129.59;;;0.22;100.00
45253;BME280;63171;50.520;30.486;2023-12-14T03:42:33;99145.97;;;0.20;100.00
45253;BME280;63171;50.520;30.486;2023-12-14T03:43:23;99127.28;;;0.15;100.00
45253;BME280;63171;50.520;30.486;2023-12-14T03:44:13;99127.16;;;0.18;100.00
45253;BME280;63171;50.520;30.486;2023-12-14T03:45:03;99136.56;;;0.19;100.00
45253;BME280;63171;50.520;30.486;2023-12-14T03:45:53;99134.44;;;0.05;100.00
45253;BME280;63171;50.520;30.486;2023-12-14T03:46:44;99137.19;;;-0.01;100.00
45253;BME280;63171;50.520;30.486;2023-12-14T03:47:34;99129.22;;;0.07;100.00
45253;BME280;63171;50.520;30.486;2023-12-14T03:48:25;99124.59;;;0.18;100.00
45253;BME280;63171;50.520;30.486;2023-12-14T03:49:15;99125.28;;;0.23;100.00
45253;BME280;63171;50.520;30.486;2023-12-14T03:50:06;99129.41;;;0.28;100.00
45253;BME280;63171;50.520;30.486;2023-12-14T03:50:56;99131.03;;;0.31;100.00
45253;BME280;63171;50.520;30.486;2023-12-14T03:51:46;99127.97;;;0.20;100.00
45253;BME280;63171;50.520;30.486;2023-12-14T03:52:36;99130.38;;;0.24;100.00
45253;BME280;63171;50.520;30.486;2023-12-14T03:53:27;99120.97;;;0.23;100.00
45253;BME280;63171;50.520;30.486;2023-12-14T03:54:17;99128.41;;;0.33;100.00
45253;BME280;63171;50.520;30.486;2023-12-14T03:55:07;99127.13;;;0.19;100.00
45253;BME280;63171;50.520;30.486;2023-12-14T03:55:58;99116.25;;;0.10;100.00
45253;BME280;63171;50.520;30.486;2023-12-14T03:56:47;99127.50;;;0.07;100.00
45253;BME280;63171;50.520;30.486;2023-12-14T03:57:38;99129.97;;;0.10;100.00
45253;BME280;63171;50.520;30.486;2023-12-14T03:58:28;99129.09;;;0.11;100.00
45253;BME280;63171;50.520;30.486;2023-12-14T03:59:18;99118.03;;;0.08;100.00
45253;BME280;63171;50.520;30.486;2023-12-14T04:00:09;99114.34;;;0.16;100.00
45253;BME280;63171;50.520;30.486;2023-12-14T04:00:59;99117.59;;;0.21;100.00
45253;BME280;63171;50.520;30.486;2023-12-14T04:01:49;99131.47;;;0.17;100.00
45253;BME280;63171;50.520;30.486;2023-12-14T04:02:39;99120.19;;;0.21;100.00
45253;BME280;63171;50.520;30.486;2023-12-14T04:03:29;99118.59;;;0.17;100.00
45253;BME280;63171;50.520;30.486;2023-12-14T04:04:20;99112.56;;;0.18;100.00
45253;BME280;63171;50.520;30.486;2023-12-14T04:05:10;99117.50;;;0.24;100.00
45253;BME280;63171;50.520;30.486;2023-12-14T04:05:59;99106.41;;;0.22;100.00
45253;BME280;63171;50.520;30.486;2023-12-14T04:06:50;99111.50;;;0.24;100.00
45253;BME280;63171;50.520;30.486;2023-12-14T04:07:40;99121.75;;;0.25;100.00
45253;BME280;63171;50.520;30.486;2023-12-14T04:08:32;99108.88;;;0.25;100.00
45253;BME280;63171;50.520;30.486;2023-12-14T04:09:22;99122.06;;;0.16;100.00
45253;BME280;63171;50.520;30.486;2023-12-14T04:10:12;99118.78;;;0.11;100.00
45253;BME280;63171;50.520;30.486;2023-12-14T04:11:03;99113.63;;;0.11;100.00
45253;BME280;63171;50.520;30.486;2023-12-14T04:11:52;99121.19;;;0.17;100.00
45253;BME280;63171;50.520;30.486;2023-12-14T04:12:42;99112.66;;;0.15;100.00
45253;BME280;63171;50.520;30.486;2023-12-14T04:13:33;99097.22;;;0.15;100.00
45253;BME280;63171;50.520;30.486;2023-12-14T04:14:23;99097.06;;;0.20;100.00
45253;BME280;63171;50.520;30.486;2023-12-14T04:15:13;99118.38;;;0.23;100.00
45253;BME280;63171;50.520;30.486;2023-12-14T04:16:03;99115.19;;;0.17;100.00
45253;BME280;63171;50.520;30.486;2023-12-14T04:16:54;99109.25;;;0.15;100.00
45253;BME280;63171;50.520;30.486;2023-12-14T04:17:45;99123.00;;;0.14;100.00
45253;BME280;63171;50.520;30.486;2023-12-14T04:18:34;99102.94;;;0.23;100.00
45253;BME280;63171;50.520;30.486;2023-12-14T04:19:24;99111.56;;;0.22;100.00
45253;BME280;63171;50.520;30.486;2023-12-14T04:20:15;99100.38;;;0.23;100.00
45253;BME280;63171;50.520;30.486;2023-12-14T04:21:05;99111.63;;;0.21;100.00
45253;BME280;63171;50.520;30.486;2023-12-14T04:21:55;99126.31;;;0.17;100.00
45253;BME280;63171;50.520;30.486;2023-12-14T04:22:46;99099.88;;;0.12;100.00
45253;BME280;63171;50.520;30.486;2023-12-14T04:23:37;99100.69;;;0.14;100.00
45253;BME280;63171;50.520;30.486;2023-12-14T04:24:27;99111.00;;;0.14;100.00
45253;BME280;63171;50.520;30.486;2023-12-14T04:25:17;99109.09;;;0.19;100.00
45253;BME280;63171;50.520;30.486;2023-12-14T04:26:07;99093.66;;;0.19;100.00